sensor_id;sensor_type;location;lat;lon;timestamp;pressure;altitude;pressure_sealevel;temperature;humidity
80401;BME280;69727;53.132;8.230;2023-07-08T00:00:21;102115.38;;;19.60;53.12
80401;BME280;69727;53.132;8.230;2023-07-08T00:02:47;102114.75;;;19.53;53.04
80401;BME280;69727;53.132;8.230;2023-07-08T00:05:15;102108.47;;;19.53;52.99
80401;BME280;69727;53.132;8.230;2023-07-08T00:07:41;102111.22;;;19.51;53.58
80401;BME280;69727;53.132;8.230;2023-07-08T00:10:18;102104.16;;;19.49;53.25
80401;BME280;69727;53.132;8.230;2023-07-08T00:12:46;102103.88;;;19.56;53.50
80401;BME280;69727;53.132;8.230;2023-07-08T00:15:13;102111.94;;;19.56;53.15
80401;BME280;69727;53.132;8.230;2023-07-08T00:17:38;102108.59;;;19.50;53.32
80401;BME280;69727;53.132;8.230;2023-07-08T00:20:19;102106.25;;;19.40;53.60
80401;BME280;69727;53.132;8.230;2023-07-08T00:22:45;102094.34;;;19.48;53.49
80401;BME280;69727;53.132;8.230;2023-07-08T00:25:13;102093.22;;;19.55;53.12
80401;BME280;69727;53.132;8.230;2023-07-08T00:27:40;102103.06;;;19.54;53.25
80401;BME280;69727;53.132;8.230;2023-07-08T00:30:18;102099.56;;;19.52;53.32
80401;BME280;69727;53.132;8.230;2023-07-08T00:32:44;102103.09;;;19.53;53.44
80401;BME280;69727;53.132;8.230;2023-07-08T00:35:09;102097.03;;;19.48;53.76
80401;BME280;69727;53.132;8.230;2023-07-08T00:37:35;102103.28;;;19.48;53.53
80401;BME280;69727;53.132;8.230;2023-07-08T00:40:00;102096.44;;;19.39;53.93
80401;BME280;69727;53.132;8.230;2023-07-08T00:42:26;102101.94;;;19.36;54.17
80401;BME280;69727;53.132;8.230;2023-07-08T00:44:51;102099.09;;;19.41;54.31
80401;BME280;69727;53.132;8.230;2023-07-08T00:47:17;102088.25;;;19.44;53.69
80401;BME280;69727;53.132;8.230;2023-07-08T00:49:50;102098.03;;;19.45;54.11
80401;BME280;69727;53.132;8.230;2023-07-08T00:52:23;102093.44;;;19.49;53.47
80401;BME280;69727;53.132;8.230;2023-07-08T00:54:51;102094.47;;;19.44;53.99
80401;BME280;69727;53.132;8.230;2023-07-08T00:57:17;102091.94;;;19.40;54.21
80401;BME280;69727;53.132;8.230;2023-07-08T00:59:52;102087.22;;;19.47;53.79
80401;BME280;69727;53.132;8.230;2023-07-08T01:02:21;102084.59;;;19.45;54.11
80401;BME280;69727;53.132;8.230;2023-07-08T01:05:10;102085.19;;;19.30;54.38
80401;BME280;69727;53.132;8.230;2023-07-08T01:07:39;102090.59;;;19.28;54.54
80401;BME280;69727;53.132;8.230;2023-07-08T01:10:14;102091.25;;;19.35;54.29
80401;BME280;69727;53.132;8.230;2023-07-08T01:12:46;102086.88;;;19.32;54.60
80401;BME280;69727;53.132;8.230;2023-07-08T01:15:13;102093.00;;;19.36;54.78
80401;BME280;69727;53.132;8.230;2023-07-08T01:17:42;102080.69;;;19.30;54.57
80401;BME280;69727;53.132;8.230;2023-07-08T01:20:08;102080.84;;;19.25;54.60
80401;BME280;69727;53.132;8.230;2023-07-08T01:22:39;102082.84;;;19.20;54.64
80401;BME280;69727;53.132;8.230;2023-07-08T01:25:06;102082.66;;;19.25;54.86
80401;BME280;69727;53.132;8.230;2023-07-08T01:27:35;102077.63;;;19.16;55.03
80401;BME280;69727;53.132;8.230;2023-07-08T01:30:03;102083.91;;;19.15;54.93
80401;BME280;69727;53.132;8.230;2023-07-08T01:32:33;102079.41;;;19.15;54.51
80401;BME280;69727;53.132;8.230;2023-07-08T01:35:00;102068.78;;;19.12;54.46
80401;BME280;69727;53.132;8.230;2023-07-08T01:37:34;102070.50;;;19.15;54.67
80401;BME280;69727;53.132;8.230;2023-07-08T01:42:44;102056.59;;;19.03;54.70
80401;BME280;69727;53.132;8.230;2023-07-08T01:45:11;102057.03;;;18.91;55.29
80401;BME280;69727;53.132;8.230;2023-07-08T01:47:38;102062.25;;;18.96;55.20
80401;BME280;69727;53.132;8.230;2023-07-08T01:50:05;102056.16;;;18.90;55.37
80401;BME280;69727;53.132;8.230;2023-07-08T01:52:30;102051.78;;;18.88;55.22
80401;BME280;69727;53.132;8.230;2023-07-08T01:54:55;102059.34;;;18.75;55.64
80401;BME280;69727;53.132;8.230;2023-07-08T01:57:21;102050.38;;;18.76;55.78
80401;BME280;69727;53.132;8.230;2023-07-08T01:59:46;102061.91;;;18.78;55.38
80401;BME280;69727;53.132;8.230;2023-07-08T02:02:12;102061.09;;;18.76;55.47
80401;BME280;69727;53.132;8.230;2023-07-08T02:04:38;102054.94;;;18.72;55.64
80401;BME280;69727;53.132;8.230;2023-07-08T02:07:03;102059.53;;;18.69;55.50
80401;BME280;69727;53.132;8.230;2023-07-08T02:09:29;102048.84;;;18.69;55.72
80401;BME280;69727;53.132;8.230;2023-07-08T02:11:55;102050.50;;;18.73;55.63
80401;BME280;69727;53.132;8.230;2023-07-08T02:14:22;102049.75;;;18.68;55.96
80401;BME280;69727;53.132;8.230;2023-07-08T02:16:48;102051.56;;;18.67;55.84
80401;BME280;69727;53.132;8.230;2023-07-08T02:19:13;102045.50;;;18.62;55.99
80401;BME280;69727;53.132;8.230;2023-07-08T02:21:39;102043.06;;;18.54;56.30
80401;BME280;69727;53.132;8.230;2023-07-08T02:24:05;102041.19;;;18.57;56.10
80401;BME280;69727;53.132;8.230;2023-07-08T02:26:31;102042.06;;;18.57;56.15
80401;BME280;69727;53.132;8.230;2023-07-08T02:28:59;102047.56;;;18.52;56.50
80401;BME280;69727;53.132;8.230;2023-07-08T02:31:25;102040.50;;;18.51;56.11
80401;BME280;69727;53.132;8.230;2023-07-08T02:33:51;102045.78;;;18.53;55.94
80401;BME280;69727;53.132;8.230;2023-07-08T02:36:17;102049.25;;;18.57;56.01
80401;BME280;69727;53.132;8.230;2023-07-08T02:38:42;102051.88;;;18.58;55.95
80401;BME280;69727;53.132;8.230;2023-07-08T02:41:08;102041.19;;;18.57;55.88
80401;BME280;69727;53.132;8.230;2023-07-08T02:43:33;102044.03;;;18.52;56.01
80401;BME280;69727;53.132;8.230;2023-07-08T02:45:58;102048.41;;;18.54;55.64
80401;BME280;69727;53.132;8.230;2023-07-08T02:48:24;102056.59;;;18.50;56.09
80401;BME280;69727;53.132;8.230;2023-07-08T02:50:49;102041.66;;;18.43;56.08
80401;BME280;69727;53.132;8.230;2023-07-08T02:53:14;102045.00;;;18.49;55.60
80401;BME280;69727;53.132;8.230;2023-07-08T02:55:40;102039.03;;;18.41;55.87
80401;BME280;69727;53.132;8.230;2023-07-08T02:58:09;102041.44;;;18.49;56.04
80401;BME280;69727;53.132;8.230;2023-07-08T03:00:35;102039.75;;;18.46;55.97
80401;BME280;69727;53.132;8.230;2023-07-08T03:03:03;102042.56;;;18.43;56.11
80401;BME280;69727;53.132;8.230;2023-07-08T03:05:28;102036.28;;;18.43;56.09
80401;BME280;69727;53.132;8.230;2023-07-08T03:07:54;102040.75;;;18.44;55.85
80401;BME280;69727;53.132;8.230;2023-07-08T03:10:19;102034.56;;;18.42;56.28
80401;BME280;69727;53.132;8.230;2023-07-08T03:12:44;102034.88;;;18.32;56.33
80401;BME280;69727;53.132;8.230;2023-07-08T03:15:10;102033.09;;;18.31;56.71
80401;BME280;69727;53.132;8.230;2023-07-08T03:17:35;102029.47;;;18.34;56.59
80401;BME280;69727;53.132;8.230;2023-07-08T03:20:00;102029.56;;;18.31;56.64
80401;BME280;69727;53.132;8.230;2023-07-08T03:22:26;102025.16;;;18.28;56.16
80401;BME280;69727;53.132;8.230;2023-07-08T03:24:51;102018.28;;;18.19;56.44
80401;BME280;69727;53.132;8.230;2023-07-08T03:27:17;102019.25;;;18.18;56.67
80401;BME280;69727;53.132;8.230;2023-07-08T03:29:42;102031.94;;;18.12;56.83
80401;BME280;69727;53.132;8.230;2023-07-08T03:32:11;102028.38;;;18.11;57.11
80401;BME280;69727;53.132;8.230;2023-07-08T03:34:37;102021.34;;;18.09;56.84
80401;BME280;69727;53.132;8.230;2023-07-08T03:37:03;102019.53;;;18.09;57.02
80401;BME280;69727;53.132;8.230;2023-07-08T03:39:28;102026.47;;;18.15;56.98
80401;BME280;69727;53.132;8.230;2023-07-08T03:41:54;102028.97;;;18.21;56.75
80401;BME280;69727;53.132;8.230;2023-07-08T03:44:20;102027.28;;;18.18;56.63
80401;BME280;69727;53.132;8.230;2023-07-08T03:46:47;102024.75;;;18.14;56.91
80401;BME280;69727;53.132;8.230;2023-07-08T03:49:15;102032.63;;;18.18;57.07
80401;BME280;69727;53.132;8.230;2023-07-08T03:51:41;102018.34;;;18.18;56.83
80401;BME280;69727;53.132;8.230;2023-07-08T03:54:11;102014.66;;;18.22;56.88
80401;BME280;69727;53.132;8.230;2023-07-08T03:56:37;102021.88;;;18.20;56.65
80401;BME280;69727;53.132;8.230;2023-07-08T03:59:02;102016.63;;;18.17;57.27
80401;BME280;69727;53.132;8.230;2023-07-08T04:01:27;102023.66;;;18.19;57.19
80401;BME280;69727;53.132;8.230;2023-07-08T04:03:55;102023.47;;;18.26;56.88
80401;BME280;69727;53.132;8.230;2023-07-08T04:06:22;102020.88;;;18.23;57.16
80401;BME280;69727;53.132;8.230;2023-07-08T04:08:48;102016.41;;;18.23;56.98
80401;BME280;69727;53.132;8.230;2023-07-08T04:11:16;102009.19;;;18.25;57.23
80401;BME280;69727;53.132;8.230;2023-07-08T04:13:42;102002.88;;;18.28;56.83
80401;BME280;69727;53.132;8.230;2023-07-08T04:16:14;102006.28;;;18.33;57.11
80401;BME280;69727;53.132;8.230;2023-07-08T04:18:41;102004.41;;;18.35;57.34
80401;BME280;69727;53.132;8.230;2023-07-08T04:21:06;102010.88;;;18.29;57.49
80401;BME280;69727;53.132;8.230;2023-07-08T04:23:32;102007.00;;;18.38;56.97
80401;BME280;69727;53.132;8.230;2023-07-08T04:25:57;102002.25;;;18.46;56.81
80401;BME280;69727;53.132;8.230;2023-07-08T04:28:23;102003.91;;;18.50;56.77
80401;BME280;69727;53.132;8.230;2023-07-08T04:30:49;102011.06;;;18.50;57.09
80401;BME280;69727;53.132;8.230;2023-07-08T04:33:14;102008.09;;;18.59;56.85
80401;BME280;69727;53.132;8.230;2023-07-08T04:35:43;102007.72;;;18.70;56.60
80401;BME280;69727;53.132;8.230;2023-07-08T04:38:20;102002.97;;;18.78;56.38
80401;BME280;69727;53.132;8.230;2023-07-08T04:40:50;102010.72;;;18.87;56.05
80401;BME280;69727;53.132;8.230;2023-07-08T04:43:19;102010.41;;;18.97;55.94
80401;BME280;69727;53.132;8.230;2023-07-08T04:45:48;102016.34;;;19.05;55.37
80401;BME280;69727;53.132;8.230;2023-07-08T04:48:16;102013.50;;;19.09;55.43
80401;BME280;69727;53.132;8.230;2023-07-08T04:50:45;102016.72;;;19.19;55.50
80401;BME280;69727;53.132;8.230;2023-07-08T04:53:11;102019.13;;;19.27;55.29
80401;BME280;69727;53.132;8.230;2023-07-08T04:55:46;102015.06;;;19.40;55.31
80401;BME280;69727;53.132;8.230;2023-07-08T04:58:12;102009.31;;;19.50;54.98
80401;BME280;69727;53.132;8.230;2023-07-08T05:00:38;102016.38;;;19.52;55.29
80401;BME280;69727;53.132;8.230;2023-07-08T05:03:03;102014.56;;;19.53;55.09
80401;BME280;69727;53.132;8.230;2023-07-08T05:05:28;102012.25;;;19.67;54.31
80401;BME280;69727;53.132;8.230;2023-07-08T05:07:54;102014.94;;;19.91;53.92
80401;BME280;69727;53.132;8.230;2023-07-08T05:10:25;102008.91;;;20.08;53.76
80401;BME280;69727;53.132;8.230;2023-07-08T05:12:51;102004.34;;;20.10;53.83
80401;BME280;69727;53.132;8.230;2023-07-08T05:15:16;102004.84;;;20.20;53.42
80401;BME280;69727;53.132;8.230;2023-07-08T05:17:42;102003.47;;;20.31;52.96
80401;BME280;69727;53.132;8.230;2023-07-08T05:20:09;102015.44;;;20.45;52.73
80401;BME280;69727;53.132;8.230;2023-07-08T05:22:35;102013.16;;;20.56;52.87
80401;BME280;69727;53.132;8.230;2023-07-08T05:25:01;102005.69;;;20.64;52.43
80401;BME280;69727;53.132;8.230;2023-07-08T05:27:27;102004.13;;;20.79;52.38
80401;BME280;69727;53.132;8.230;2023-07-08T05:29:52;102011.53;;;20.95;52.28
80401;BME280;69727;53.132;8.230;2023-07-08T05:32:18;102007.34;;;21.08;51.86
80401;BME280;69727;53.132;8.230;2023-07-08T05:34:44;102008.09;;;21.12;52.12
80401;BME280;69727;53.132;8.230;2023-07-08T05:37:10;102008.91;;;21.14;51.68
80401;BME280;69727;53.132;8.230;2023-07-08T05:39:35;102003.69;;;21.30;51.49
80401;BME280;69727;53.132;8.230;2023-07-08T05:42:01;102008.38;;;21.45;51.61
80401;BME280;69727;53.132;8.230;2023-07-08T05:46:51;102002.25;;;21.62;50.75
80401;BME280;69727;53.132;8.230;2023-07-08T05:49:17;102000.88;;;21.72;50.80
80401;BME280;69727;53.132;8.230;2023-07-08T05:51:46;102003.63;;;21.90;50.37
80401;BME280;69727;53.132;8.230;2023-07-08T05:54:12;102009.00;;;21.90;49.86
80401;BME280;69727;53.132;8.230;2023-07-08T05:56:37;102012.75;;;22.05;49.74
80401;BME280;69727;53.132;8.230;2023-07-08T05:59:03;102015.06;;;22.12;49.48
80401;BME280;69727;53.132;8.230;2023-07-08T06:01:28;102007.94;;;22.30;49.11
80401;BME280;69727;53.132;8.230;2023-07-08T06:03:54;102014.38;;;22.45;48.45
80401;BME280;69727;53.132;8.230;2023-07-08T06:06:24;102002.03;;;22.59;48.10
80401;BME280;69727;53.132;8.230;2023-07-08T06:08:49;102009.97;;;22.79;47.93
80401;BME280;69727;53.132;8.230;2023-07-08T06:11:14;102011.84;;;22.95;47.53
80401;BME280;69727;53.132;8.230;2023-07-08T06:13:40;102011.53;;;23.01;47.49
80401;BME280;69727;53.132;8.230;2023-07-08T06:16:05;102007.31;;;23.13;46.74
80401;BME280;69727;53.132;8.230;2023-07-08T06:18:30;102005.47;;;23.31;46.16
80401;BME280;69727;53.132;8.230;2023-07-08T06:20:57;102002.16;;;23.42;45.78
80401;BME280;69727;53.132;8.230;2023-07-08T06:23:23;102010.66;;;23.67;45.47
80401;BME280;69727;53.132;8.230;2023-07-08T06:25:49;102010.31;;;23.73;45.06
80401;BME280;69727;53.132;8.230;2023-07-08T06:28:15;102003.94;;;23.74;44.49
80401;BME280;69727;53.132;8.230;2023-07-08T06:30:40;102005.59;;;23.77;44.41
80401;BME280;69727;53.132;8.230;2023-07-08T06:33:05;101995.81;;;23.92;43.79
80401;BME280;69727;53.132;8.230;2023-07-08T06:35:31;102004.06;;;24.05;44.21
80401;BME280;69727;53.132;8.230;2023-07-08T06:37:58;101997.69;;;24.06;43.45
80401;BME280;69727;53.132;8.230;2023-07-08T06:40:23;101995.69;;;24.09;43.56
80401;BME280;69727;53.132;8.230;2023-07-08T06:42:49;101997.16;;;24.31;43.97
80401;BME280;69727;53.132;8.230;2023-07-08T06:45:14;101996.97;;;24.34;43.06
80401;BME280;69727;53.132;8.230;2023-07-08T06:47:40;101988.09;;;24.46;43.35
80401;BME280;69727;53.132;8.230;2023-07-08T06:50:06;101976.34;;;24.47;42.91
80401;BME280;69727;53.132;8.230;2023-07-08T06:52:32;101979.03;;;24.63;43.39
80401;BME280;69727;53.132;8.230;2023-07-08T06:55:05;101981.16;;;24.73;44.19
80401;BME280;69727;53.132;8.230;2023-07-08T06:57:31;101996.16;;;24.78;42.93
80401;BME280;69727;53.132;8.230;2023-07-08T06:59:56;101986.31;;;24.92;43.06
80401;BME280;69727;53.132;8.230;2023-07-08T07:02:23;101988.16;;;25.06;42.30
80401;BME280;69727;53.132;8.230;2023-07-08T07:04:49;101983.72;;;25.05;42.68
80401;BME280;69727;53.132;8.230;2023-07-08T07:07:14;101981.72;;;25.08;42.21
80401;BME280;69727;53.132;8.230;2023-07-08T07:09:40;101973.69;;;25.35;42.65
80401;BME280;69727;53.132;8.230;2023-07-08T07:12:06;101977.59;;;25.73;42.11
80401;BME280;69727;53.132;8.230;2023-07-08T07:14:32;101971.53;;;26.64;40.60
80401;BME280;69727;53.132;8.230;2023-07-08T07:16:58;101973.22;;;27.81;37.54
80401;BME280;69727;53.132;8.230;2023-07-08T07:19:24;101974.16;;;28.88;36.00
80401;BME280;69727;53.132;8.230;2023-07-08T07:21:49;101967.03;;;29.55;34.09
80401;BME280;69727;53.132;8.230;2023-07-08T07:24:15;101973.38;;;30.31;33.71
80401;BME280;69727;53.132;8.230;2023-07-08T07:26:40;101978.97;;;30.83;31.84
80401;BME280;69727;53.132;8.230;2023-07-08T07:29:05;101976.81;;;31.08;31.14
80401;BME280;69727;53.132;8.230;2023-07-08T07:31:31;101984.69;;;31.32;31.41
80401;BME280;69727;53.132;8.230;2023-07-08T07:33:59;101976.03;;;31.68;30.36
80401;BME280;69727;53.132;8.230;2023-07-08T07:36:25;101984.44;;;31.86;29.95
80401;BME280;69727;53.132;8.230;2023-07-08T07:38:50;101982.25;;;31.79;30.27
80401;BME280;69727;53.132;8.230;2023-07-08T07:41:16;101973.34;;;31.77;31.00
80401;BME280;69727;53.132;8.230;2023-07-08T07:43:41;101975.84;;;32.10;30.12
80401;BME280;69727;53.132;8.230;2023-07-08T07:46:06;101974.69;;;32.32;29.58
80401;BME280;69727;53.132;8.230;2023-07-08T07:48:33;101975.38;;;32.54;29.16
80401;BME280;69727;53.132;8.230;2023-07-08T07:50:59;101970.81;;;32.64;29.08
80401;BME280;69727;53.132;8.230;2023-07-08T07:53:24;101973.38;;;32.75;28.88
80401;BME280;69727;53.132;8.230;2023-07-08T07:56:05;101979.97;;;32.63;28.72
80401;BME280;69727;53.132;8.230;2023-07-08T07:58:31;101971.78;;;32.53;29.12
80401;BME280;69727;53.132;8.230;2023-07-08T08:00:56;101972.22;;;32.48;29.10
80401;BME280;69727;53.132;8.230;2023-07-08T08:03:22;101976.84;;;32.38;29.40
80401;BME280;69727;53.132;8.230;2023-07-08T08:05:48;101969.34;;;31.91;30.52
80401;BME280;69727;53.132;8.230;2023-07-08T08:08:15;101968.84;;;31.26;31.77
80401;BME280;69727;53.132;8.230;2023-07-08T08:10:42;101970.75;;;30.62;32.38
80401;BME280;69727;53.132;8.230;2023-07-08T08:13:07;101962.88;;;29.94;32.80
80401;BME280;69727;53.132;8.230;2023-07-08T08:15:34;101968.38;;;29.60;34.38
80401;BME280;69727;53.132;8.230;2023-07-08T08:17:59;101964.31;;;29.55;35.79
80401;BME280;69727;53.132;8.230;2023-07-08T08:20:25;101970.13;;;29.39;36.08
80401;BME280;69727;53.132;8.230;2023-07-08T08:22:51;101968.78;;;29.33;36.64
80401;BME280;69727;53.132;8.230;2023-07-08T08:25:19;101972.34;;;29.34;35.98
80401;BME280;69727;53.132;8.230;2023-07-08T08:27:44;101971.63;;;29.32;36.15
80401;BME280;69727;53.132;8.230;2023-07-08T08:30:10;101969.16;;;29.28;34.91
80401;BME280;69727;53.132;8.230;2023-07-08T08:32:36;101968.59;;;28.89;34.79
80401;BME280;69727;53.132;8.230;2023-07-08T08:35:02;101963.41;;;28.98;36.41
80401;BME280;69727;53.132;8.230;2023-07-08T08:37:27;101978.75;;;28.99;36.21
80401;BME280;69727;53.132;8.230;2023-07-08T08:39:53;101973.44;;;28.97;35.73
80401;BME280;69727;53.132;8.230;2023-07-08T08:42:26;101971.56;;;28.98;35.08
80401;BME280;69727;53.132;8.230;2023-07-08T08:44:52;101968.13;;;29.07;35.67
80401;BME280;69727;53.132;8.230;2023-07-08T08:47:32;101966.91;;;29.22;35.93
80401;BME280;69727;53.132;8.230;2023-07-08T08:52:51;101960.97;;;29.40;34.71
80401;BME280;69727;53.132;8.230;2023-07-08T08:55:17;101954.28;;;29.44;35.03
80401;BME280;69727;53.132;8.230;2023-07-08T08:57:53;101957.13;;;29.42;34.93
80401;BME280;69727;53.132;8.230;2023-07-08T09:00:28;101956.00;;;29.56;34.84
80401;BME280;69727;53.132;8.230;2023-07-08T09:03:03;101964.88;;;29.70;35.14
80401;BME280;69727;53.132;8.230;2023-07-08T09:05:29;101957.72;;;29.80;34.52
80401;BME280;69727;53.132;8.230;2023-07-08T09:10:45;101950.72;;;29.87;34.21
80401;BME280;69727;53.132;8.230;2023-07-08T09:13:24;101946.91;;;29.90;34.46
80401;BME280;69727;53.132;8.230;2023-07-08T09:16:18;101953.28;;;30.00;32.79
80401;BME280;69727;53.132;8.230;2023-07-08T09:19:05;101955.59;;;30.16;34.85
80401;BME280;69727;53.132;8.230;2023-07-08T09:21:55;101950.41;;;30.34;33.36
80401;BME280;69727;53.132;8.230;2023-07-08T09:26:58;101942.41;;;30.53;32.47
80401;BME280;69727;53.132;8.230;2023-07-08T09:29:26;101948.78;;;30.64;31.69
80401;BME280;69727;53.132;8.230;2023-07-08T09:31:51;101955.50;;;30.81;32.86
80401;BME280;69727;53.132;8.230;2023-07-08T09:34:41;101955.97;;;31.07;32.88
80401;BME280;69727;53.132;8.230;2023-07-08T09:37:37;101956.00;;;31.17;31.45
80401;BME280;69727;53.132;8.230;2023-07-08T09:40:18;101949.28;;;31.21;31.43
80401;BME280;69727;53.132;8.230;2023-07-08T09:45:50;101944.28;;;31.45;31.47
80401;BME280;69727;53.132;8.230;2023-07-08T09:48:23;101949.44;;;31.60;31.63
80401;BME280;69727;53.132;8.230;2023-07-08T09:50:53;101944.13;;;31.78;30.79
80401;BME280;69727;53.132;8.230;2023-07-08T09:53:18;101943.41;;;31.95;30.41
80401;BME280;69727;53.132;8.230;2023-07-08T09:55:44;101946.00;;;31.97;29.75
80401;BME280;69727;53.132;8.230;2023-07-08T09:58:27;101947.72;;;32.08;29.67
80401;BME280;69727;53.132;8.230;2023-07-08T10:00:58;101952.66;;;32.14;30.02
80401;BME280;69727;53.132;8.230;2023-07-08T10:03:34;101950.66;;;32.36;29.76
80401;BME280;69727;53.132;8.230;2023-07-08T10:06:04;101959.84;;;32.64;29.84
80401;BME280;69727;53.132;8.230;2023-07-08T10:08:40;101958.59;;;32.96;29.32
80401;BME280;69727;53.132;8.230;2023-07-08T10:13:42;101946.28;;;33.10;28.11
80401;BME280;69727;53.132;8.230;2023-07-08T10:16:13;101950.47;;;33.41;28.00
80401;BME280;69727;53.132;8.230;2023-07-08T10:18:39;101946.97;;;33.49;26.97
80401;BME280;69727;53.132;8.230;2023-07-08T10:31:46;101932.94;;;33.98;27.23
80401;BME280;69727;53.132;8.230;2023-07-08T10:37:15;101934.50;;;34.55;26.64
80401;BME280;69727;53.132;8.230;2023-07-08T10:45:23;101925.28;;;34.90;26.85
80401;BME280;69727;53.132;8.230;2023-07-08T10:48:01;101923.22;;;35.27;26.47
80401;BME280;69727;53.132;8.230;2023-07-08T10:53:41;101909.06;;;35.56;25.07
80401;BME280;69727;53.132;8.230;2023-07-08T10:56:23;101914.97;;;35.86;25.43
80401;BME280;69727;53.132;8.230;2023-07-08T11:04:26;101920.47;;;36.60;22.95
80401;BME280;69727;53.132;8.230;2023-07-08T11:07:46;101914.31;;;36.50;23.14
80401;BME280;69727;53.132;8.230;2023-07-08T11:10:05;101917.88;;;36.67;23.23
80401;BME280;69727;53.132;8.230;2023-07-08T11:15:36;101910.47;;;36.75;21.44
80401;BME280;69727;53.132;8.230;2023-07-08T11:20:54;101905.41;;;37.35;21.85
80401;BME280;69727;53.132;8.230;2023-07-08T11:28:37;101897.16;;;37.90;21.63
80401;BME280;69727;53.132;8.230;2023-07-08T11:31:03;101890.34;;;38.00;21.35
80401;BME280;69727;53.132;8.230;2023-07-08T11:33:30;101895.66;;;38.25;21.09
80401;BME280;69727;53.132;8.230;2023-07-08T11:35:57;101895.19;;;37.98;20.31
80401;BME280;69727;53.132;8.230;2023-07-08T11:38:24;101897.94;;;37.98;19.99
80401;BME280;69727;53.132;8.230;2023-07-08T11:40:59;101888.19;;;37.88;21.00
80401;BME280;69727;53.132;8.230;2023-07-08T11:43:28;101879.44;;;37.84;20.63
80401;BME280;69727;53.132;8.230;2023-07-08T11:46:04;101888.59;;;38.22;21.60
80401;BME280;69727;53.132;8.230;2023-07-08T11:48:38;101876.84;;;38.44;20.80
80401;BME280;69727;53.132;8.230;2023-07-08T11:51:05;101877.50;;;38.61;19.63
80401;BME280;69727;53.132;8.230;2023-07-08T11:53:47;101881.16;;;38.76;18.75
80401;BME280;69727;53.132;8.230;2023-07-08T12:03:47;101865.41;;;38.62;19.25
80401;BME280;69727;53.132;8.230;2023-07-08T12:08:58;101862.81;;;38.60;19.15
80401;BME280;69727;53.132;8.230;2023-07-08T12:11:27;101864.94;;;38.88;18.72
80401;BME280;69727;53.132;8.230;2023-07-08T12:13:55;101867.44;;;38.68;17.35
80401;BME280;69727;53.132;8.230;2023-07-08T12:16:23;101869.81;;;38.71;17.78
80401;BME280;69727;53.132;8.230;2023-07-08T12:18:49;101864.75;;;38.74;17.48
80401;BME280;69727;53.132;8.230;2023-07-08T12:21:16;101857.97;;;38.92;17.86
80401;BME280;69727;53.132;8.230;2023-07-08T12:23:45;101855.50;;;38.97;18.00
80401;BME280;69727;53.132;8.230;2023-07-08T12:26:12;101852.06;;;39.10;17.50
80401;BME280;69727;53.132;8.230;2023-07-08T12:28:41;101858.06;;;38.99;17.45
80401;BME280;69727;53.132;8.230;2023-07-08T12:31:22;101853.88;;;38.88;17.55
80401;BME280;69727;53.132;8.230;2023-07-08T12:33:49;101860.88;;;39.20;16.40
80401;BME280;69727;53.132;8.230;2023-07-08T12:36:27;101856.75;;;39.09;17.09
80401;BME280;69727;53.132;8.230;2023-07-08T12:38:55;101849.00;;;39.05;16.50
80401;BME280;69727;53.132;8.230;2023-07-08T12:41:28;101846.38;;;38.82;16.29
80401;BME280;69727;53.132;8.230;2023-07-08T12:43:55;101842.63;;;38.89;16.39
80401;BME280;69727;53.132;8.230;2023-07-08T12:46:21;101845.50;;;39.11;16.65
80401;BME280;69727;53.132;8.230;2023-07-08T12:48:47;101828.13;;;39.39;17.17
80401;BME280;69727;53.132;8.230;2023-07-08T12:51:16;101837.59;;;39.51;16.29
80401;BME280;69727;53.132;8.230;2023-07-08T12:53:42;101830.06;;;39.81;16.13
80401;BME280;69727;53.132;8.230;2023-07-08T12:56:08;101833.72;;;39.89;16.88
80401;BME280;69727;53.132;8.230;2023-07-08T12:58:38;101833.66;;;39.82;15.97
80401;BME280;69727;53.132;8.230;2023-07-08T13:01:05;101822.47;;;39.69;15.87
80401;BME280;69727;53.132;8.230;2023-07-08T13:03:36;101833.94;;;39.65;15.39
80401;BME280;69727;53.132;8.230;2023-07-08T13:06:03;101823.16;;;39.71;15.25
80401;BME280;69727;53.132;8.230;2023-07-08T13:08:33;101827.94;;;40.05;14.30
80401;BME280;69727;53.132;8.230;2023-07-08T13:10:59;101817.88;;;40.32;13.98
80401;BME280;69727;53.132;8.230;2023-07-08T13:13:28;101821.19;;;40.43;15.21
80401;BME280;69727;53.132;8.230;2023-07-08T13:15:55;101828.69;;;40.49;15.12
80401;BME280;69727;53.132;8.230;2023-07-08T13:18:28;101821.56;;;40.81;14.52
80401;BME280;69727;53.132;8.230;2023-07-08T13:20:55;101812.94;;;41.18;15.23
80401;BME280;69727;53.132;8.230;2023-07-08T13:23:22;101815.50;;;41.06;14.09
80401;BME280;69727;53.132;8.230;2023-07-08T13:25:49;101814.13;;;40.82;14.27
80401;BME280;69727;53.132;8.230;2023-07-08T13:28:28;101821.81;;;40.86;13.62
80401;BME280;69727;53.132;8.230;2023-07-08T13:30:56;101822.28;;;40.90;14.14
80401;BME280;69727;53.132;8.230;2023-07-08T13:33:22;101809.75;;;41.07;14.22
80401;BME280;69727;53.132;8.230;2023-07-08T13:35:50;101817.13;;;41.62;13.86
80401;BME280;69727;53.132;8.230;2023-07-08T13:38:22;101818.84;;;41.96;13.40
80401;BME280;69727;53.132;8.230;2023-07-08T13:40:56;101813.28;;;42.23;13.46
80401;BME280;69727;53.132;8.230;2023-07-08T13:43:28;101810.94;;;41.87;13.04
80401;BME280;69727;53.132;8.230;2023-07-08T13:45:54;101812.19;;;41.44;13.43
80401;BME280;69727;53.132;8.230;2023-07-08T13:48:33;101811.34;;;41.50;13.12
80401;BME280;69727;53.132;8.230;2023-07-08T13:56:01;101809.63;;;41.29;13.71
80401;BME280;69727;53.132;8.230;2023-07-08T13:58:29;101804.06;;;40.81;12.80
80401;BME280;69727;53.132;8.230;2023-07-08T14:00:55;101802.06;;;40.61;13.79
80401;BME280;69727;53.132;8.230;2023-07-08T14:03:21;101803.28;;;40.94;14.29
80401;BME280;69727;53.132;8.230;2023-07-08T14:05:47;101808.19;;;40.92;14.01
80401;BME280;69727;53.132;8.230;2023-07-08T14:08:14;101805.28;;;41.13;14.25